createdAt,value
2023-05-11T00:01:25.228Z,4.15
2023-05-11T00:03:52.710Z,4.35
2023-05-11T00:06:20.449Z,4.32
2023-05-11T00:08:47.668Z,4.53
2023-05-11T00:11:15.385Z,5.18
2023-05-11T00:13:42.712Z,5.68
2023-05-11T00:16:10.286Z,4.75
2023-05-11T00:18:37.690Z,4.60
2023-05-11T00:21:05.394Z,4.57
2023-05-11T00:23:32.681Z,5.05
2023-05-11T00:26:00.429Z,4.00
2023-05-11T00:28:27.689Z,3.67
2023-05-11T00:30:58.632Z,3.85
2023-05-11T00:33:26.283Z,4.20
2023-05-11T00:36:01.604Z,4.47
2023-05-11T00:38:28.918Z,4.03
2023-05-11T00:40:56.948Z,5.13
2023-05-11T00:43:24.264Z,4.43
2023-05-11T00:45:53.599Z,4.55
2023-05-11T00:48:21.709Z,4.40
2023-05-11T00:50:51.076Z,4.63
2023-05-11T00:53:18.426Z,3.95
2023-05-11T00:55:46.703Z,4.60
2023-05-11T00:58:16.057Z,4.63
2023-05-11T01:00:44.552Z,4.20
2023-05-11T01:03:13.394Z,4.50
2023-05-11T01:06:07.343Z,4.10
2023-05-11T01:09:00.056Z,4.47
2023-05-11T01:11:36.292Z,4.30
2023-05-11T01:14:41.612Z,4.90
2023-05-11T01:17:24.527Z,4.68
2023-05-11T01:20:02.516Z,5.10
2023-05-11T01:22:49.441Z,4.38
2023-05-11T01:25:38.189Z,4.32
2023-05-11T01:28:26.310Z,4.97
2023-05-11T01:31:09.099Z,5.15
2023-05-11T01:33:40.969Z,5.15
2023-05-11T01:36:12.858Z,5.68
2023-05-11T01:38:44.460Z,5.55
2023-05-11T01:41:20.119Z,5.53
2023-05-11T01:44:00.704Z,7.25
2023-05-11T01:46:33.776Z,7.40
2023-05-11T01:49:09.589Z,7.20
2023-05-11T01:51:39.652Z,6.85
2023-05-11T01:54:11.515Z,7.22
2023-05-11T01:56:43.176Z,7.70
2023-05-11T01:59:14.390Z,6.78
2023-05-11T02:01:41.936Z,9.52
2023-05-11T02:04:12.027Z,9.55
2023-05-11T02:06:43.748Z,8.77
2023-05-11T02:09:13.661Z,7.60
2023-05-11T02:11:43.665Z,6.88
2023-05-11T02:14:13.074Z,5.57
2023-05-11T02:16:42.076Z,5.50
2023-05-11T02:19:11.789Z,6.15
2023-05-11T02:21:42.461Z,6.30
2023-05-11T02:24:11.191Z,7.50
2023-05-11T02:26:39.411Z,7.25
2023-05-11T02:29:07.079Z,6.82
2023-05-11T02:31:46.320Z,5.60
2023-05-11T02:34:24.970Z,5.32
2023-05-11T02:36:58.910Z,5.05
2023-05-11T02:39:36.539Z,4.88
2023-05-11T02:42:15.409Z,4.55
2023-05-11T02:45:02.517Z,5.00
2023-05-11T02:47:36.805Z,4.55
2023-05-11T02:50:07.978Z,4.40
2023-05-11T02:52:41.718Z,4.43
2023-05-11T02:55:10.976Z,4.60
2023-05-11T02:57:39.500Z,4.57
2023-05-11T03:00:08.637Z,4.57
2023-05-11T03:02:36.069Z,4.40
2023-05-11T03:05:04.955Z,4.25
2023-05-11T03:07:33.857Z,4.25
2023-05-11T03:10:03.477Z,4.15
2023-05-11T03:12:34.066Z,4.15
2023-05-11T03:15:05.376Z,4.13
2023-05-11T03:17:33.671Z,3.85
2023-05-11T03:20:03.782Z,4.38
2023-05-11T03:22:33.432Z,4.20
2023-05-11T03:25:03.779Z,4.78
2023-05-11T03:27:34.036Z,5.78
2023-05-11T03:30:08.799Z,5.00
2023-05-11T03:32:37.283Z,5.47
2023-05-11T03:35:05.681Z,5.47
2023-05-11T03:37:36.247Z,4.82
2023-05-11T03:40:05.661Z,4.90
2023-05-11T03:42:36.181Z,4.10
2023-05-11T03:45:07.923Z,4.75
2023-05-11T03:47:40.128Z,4.50
2023-05-11T03:50:09.647Z,5.03
2023-05-11T03:52:38.003Z,4.90
2023-05-11T03:55:06.564Z,5.15
2023-05-11T03:57:34.799Z,4.43
2023-05-11T04:00:02.473Z,4.28
2023-05-11T04:02:30.000Z,4.05
2023-05-11T04:04:57.608Z,4.22
2023-05-11T04:07:24.938Z,3.90
2023-05-11T04:09:52.606Z,4.00
2023-05-11T04:12:19.887Z,4.07
2023-05-11T04:14:47.437Z,3.60
2023-05-11T04:17:14.684Z,4.50
2023-05-11T04:19:42.287Z,4.00
2023-05-11T04:22:09.624Z,12.27
2023-05-11T04:24:37.166Z,12.57
2023-05-11T04:27:04.602Z,5.70
2023-05-11T04:29:32.363Z,4.55
2023-05-11T04:31:59.787Z,4.22
2023-05-11T04:34:27.415Z,4.35
2023-05-11T04:36:54.669Z,4.38
2023-05-11T04:39:22.495Z,3.92
2023-05-11T04:41:49.788Z,3.70
2023-05-11T04:44:18.182Z,4.28
2023-05-11T04:46:45.425Z,3.88
2023-05-11T04:49:12.978Z,4.20
2023-05-11T04:51:40.250Z,4.07
2023-05-11T04:54:07.818Z,3.75
2023-05-11T04:56:40.431Z,3.88
2023-05-11T04:59:08.425Z,4.05
2023-05-11T05:01:36.152Z,4.15
2023-05-11T05:04:04.033Z,3.97
2023-05-11T05:06:32.338Z,4.20
2023-05-11T05:08:59.909Z,3.63
2023-05-11T05:11:27.312Z,3.92
2023-05-11T05:13:55.305Z,4.15
2023-05-11T05:16:22.708Z,4.07
2023-05-11T05:18:50.450Z,4.15
2023-05-11T05:21:17.737Z,4.30
2023-05-11T05:23:45.379Z,4.07
2023-05-11T05:26:12.621Z,4.50
2023-05-11T05:28:40.242Z,4.22
2023-05-11T05:31:07.615Z,4.30
2023-05-11T05:33:35.255Z,4.95
2023-05-11T05:36:02.860Z,4.10
2023-05-11T05:38:30.392Z,4.00
2023-05-11T05:40:57.910Z,4.30
2023-05-11T05:43:25.598Z,4.40
2023-05-11T05:45:52.979Z,4.57
2023-05-11T05:48:20.953Z,4.22
2023-05-11T05:50:48.340Z,4.13
2023-05-11T05:53:16.054Z,5.03
2023-05-11T05:55:43.371Z,12.80
2023-05-11T05:58:10.954Z,16.45
2023-05-11T06:00:38.313Z,10.23
2023-05-11T06:03:05.975Z,4.60
2023-05-11T06:05:33.323Z,4.07
2023-05-11T06:08:09.689Z,3.95
2023-05-11T06:10:39.072Z,3.90
2023-05-11T06:13:08.736Z,4.10
2023-05-11T06:15:36.143Z,4.20
2023-05-11T06:18:03.915Z,4.30
2023-05-11T06:20:32.458Z,4.30
2023-05-11T06:23:00.136Z,3.55
2023-05-11T06:25:27.972Z,3.88
2023-05-11T06:27:55.917Z,3.60
2023-05-11T06:30:23.368Z,3.70
2023-05-11T06:32:51.001Z,15.65
2023-05-11T06:35:18.364Z,22.75
2023-05-11T06:37:45.977Z,12.90
2023-05-11T06:40:16.360Z,6.80
2023-05-11T06:42:47.046Z,7.30
2023-05-11T06:45:14.401Z,5.93
2023-05-11T06:47:42.432Z,8.00
2023-05-11T06:50:10.232Z,4.30
2023-05-11T06:52:37.917Z,8.48
2023-05-11T06:55:05.881Z,3.50
2023-05-11T06:57:33.532Z,4.65
2023-05-11T07:00:00.840Z,3.30
2023-05-11T07:02:28.600Z,2.60
2023-05-11T07:04:56.117Z,3.75
2023-05-11T07:07:24.127Z,2.90
2023-05-11T07:09:51.472Z,3.00
2023-05-11T07:12:19.084Z,4.47
2023-05-11T07:14:46.398Z,4.68
2023-05-11T07:17:14.079Z,3.45
2023-05-11T07:19:41.513Z,2.90
2023-05-11T07:22:09.098Z,2.28
2023-05-11T07:24:37.749Z,2.70
2023-05-11T07:27:05.479Z,2.80
2023-05-11T07:29:32.800Z,2.00
2023-05-11T07:32:00.735Z,3.55
2023-05-11T07:34:27.990Z,2.80
2023-05-11T07:36:55.750Z,2.75
2023-05-11T07:39:23.094Z,2.83
2023-05-11T07:41:50.683Z,2.83
2023-05-11T07:44:18.335Z,2.72
2023-05-11T07:46:46.021Z,3.00
2023-05-11T07:49:18.833Z,2.90
2023-05-11T07:51:52.220Z,2.67
2023-05-11T07:54:21.660Z,2.33
2023-05-11T07:56:50.513Z,2.47
2023-05-11T07:59:17.855Z,2.83
2023-05-11T08:01:45.954Z,2.70
2023-05-11T08:04:13.231Z,2.58
2023-05-11T08:06:40.924Z,2.78
2023-05-11T08:09:08.253Z,2.60
2023-05-11T08:11:35.970Z,2.60
2023-05-11T08:14:03.995Z,2.50
2023-05-11T08:16:31.770Z,2.60
2023-05-11T08:18:59.219Z,2.30
2023-05-11T08:21:26.948Z,6.32
2023-05-11T08:23:54.222Z,2.88
2023-05-11T08:26:21.880Z,2.50
2023-05-11T08:28:49.147Z,2.35
2023-05-11T08:31:18.637Z,2.22
2023-05-11T08:33:46.146Z,2.40
2023-05-11T08:36:13.885Z,2.10
2023-05-11T08:38:41.443Z,2.72
2023-05-11T08:41:12.799Z,7.55
2023-05-11T08:43:40.849Z,9.95
2023-05-11T08:46:11.314Z,3.33
2023-05-11T08:48:38.835Z,2.40
2023-05-11T08:51:07.986Z,2.50
2023-05-11T08:53:35.416Z,2.17
2023-05-11T08:56:07.385Z,4.50
2023-05-11T08:58:39.531Z,3.45
2023-05-11T09:01:08.829Z,3.65
2023-05-11T09:03:37.469Z,3.15
2023-05-11T09:06:07.533Z,2.50
2023-05-11T09:08:37.749Z,2.70
2023-05-11T09:11:06.400Z,2.88
2023-05-11T09:13:34.379Z,2.58
2023-05-11T09:16:02.864Z,4.82
2023-05-11T09:18:30.357Z,6.32
2023-05-11T09:21:01.666Z,2.60
2023-05-11T09:23:29.048Z,3.03
2023-05-11T09:25:56.765Z,2.58
2023-05-11T09:28:27.907Z,2.88
2023-05-11T09:31:03.174Z,2.72
2023-05-11T09:33:30.760Z,10.23
2023-05-11T09:35:59.785Z,1.80
2023-05-11T09:38:27.149Z,6.25
2023-05-11T09:41:01.153Z,3.65
2023-05-11T09:43:33.608Z,2.50
2023-05-11T09:46:05.089Z,1.67
2023-05-11T09:48:34.084Z,2.08
2023-05-11T09:51:05.518Z,1.80
2023-05-11T09:53:43.352Z,1.73
2023-05-11T09:56:15.778Z,3.63
2023-05-11T09:58:57.416Z,2.60
2023-05-11T10:01:33.814Z,5.35
2023-05-11T10:04:17.978Z,2.10
2023-05-11T10:06:55.062Z,2.28
2023-05-11T10:09:27.289Z,2.13
2023-05-11T10:11:56.749Z,1.70
2023-05-11T10:14:27.733Z,1.80
2023-05-11T10:16:58.473Z,1.80
2023-05-11T10:19:31.730Z,1.70
2023-05-11T10:22:00.855Z,2.47
2023-05-11T10:24:29.215Z,2.95
2023-05-11T10:26:58.964Z,1.48
2023-05-11T10:29:26.935Z,1.65
2023-05-11T10:31:57.844Z,1.60
2023-05-11T10:34:27.350Z,1.55
2023-05-11T10:36:58.325Z,1.65
2023-05-11T10:39:28.671Z,11.65
2023-05-11T10:42:53.600Z,2.30
2023-05-11T10:45:32.027Z,1.42
2023-05-11T10:48:14.338Z,3.05
2023-05-11T10:51:30.844Z,1.67
2023-05-11T10:54:18.791Z,1.67
2023-05-11T10:57:08.562Z,1.70
2023-05-11T11:00:17.110Z,1.30
2023-05-11T11:02:45.526Z,1.27
2023-05-11T11:05:17.912Z,1.27
2023-05-11T11:08:04.168Z,1.30
2023-05-11T11:10:43.914Z,1.98
2023-05-11T11:13:14.089Z,1.70
2023-05-11T11:15:54.393Z,1.33
2023-05-11T11:18:24.068Z,1.60
2023-05-11T11:20:54.612Z,1.33
2023-05-11T11:23:43.166Z,1.60
2023-05-11T11:26:16.406Z,1.60
2023-05-11T11:29:10.664Z,1.55
2023-05-11T11:31:39.998Z,2.13
2023-05-11T11:34:27.984Z,1.92
2023-05-11T11:36:55.598Z,1.80
2023-05-11T11:39:26.017Z,1.98
2023-05-11T11:42:05.211Z,2.30
2023-05-11T11:44:34.911Z,2.83
2023-05-11T11:47:18.092Z,4.18
2023-05-11T11:49:48.861Z,1.85
2023-05-11T11:52:28.676Z,2.22
2023-05-11T11:55:01.216Z,6.75
2023-05-11T11:57:34.387Z,5.90
2023-05-11T12:00:07.491Z,3.38
2023-05-11T12:02:35.868Z,2.38
2023-05-11T12:05:18.572Z,2.22
2023-05-11T12:07:51.611Z,2.63
2023-05-11T12:10:23.979Z,2.85
2023-05-11T12:12:59.306Z,2.10
2023-05-11T12:15:29.737Z,2.05
2023-05-11T12:17:57.967Z,2.15
2023-05-11T12:20:26.077Z,1.88
2023-05-11T12:22:53.868Z,13.85
2023-05-11T12:25:22.075Z,2.10
2023-05-11T12:28:03.393Z,1.92
2023-05-11T12:30:34.844Z,2.20
2023-05-11T12:33:05.981Z,1.70
2023-05-11T12:35:34.862Z,1.75
2023-05-11T12:38:03.188Z,1.98
2023-05-11T12:40:31.719Z,2.00
2023-05-11T12:43:01.028Z,2.90
2023-05-11T12:45:29.495Z,2.40
2023-05-11T12:47:58.689Z,2.47
2023-05-11T12:50:26.138Z,2.67
2023-05-11T12:52:53.816Z,2.30
2023-05-11T12:55:29.198Z,1.90
2023-05-11T12:58:18.758Z,2.17
2023-05-11T13:00:57.832Z,2.35
2023-05-11T13:03:34.030Z,1.88
2023-05-11T13:06:13.645Z,2.60
2023-05-11T13:08:47.045Z,4.35
2023-05-11T13:11:26.993Z,3.95
2023-05-11T13:13:57.221Z,2.08
2023-05-11T13:16:29.050Z,1.95
2023-05-11T13:19:01.674Z,2.00
2023-05-11T13:21:30.004Z,2.13
2023-05-11T13:23:57.699Z,2.13
2023-05-11T13:26:30.868Z,2.00
2023-05-11T13:29:10.118Z,1.75
2023-05-11T13:31:53.521Z,3.88
2023-05-11T13:34:21.662Z,1.90
2023-05-11T13:36:49.505Z,1.58
2023-05-11T13:39:17.393Z,3.17
2023-05-11T13:41:45.126Z,1.73
2023-05-11T13:44:12.929Z,2.20
2023-05-11T13:46:40.400Z,1.90
2023-05-11T13:49:08.760Z,1.80
2023-05-11T13:51:36.418Z,2.20
2023-05-11T13:54:04.327Z,1.98
2023-05-11T13:56:31.967Z,1.52
2023-05-11T13:59:00.205Z,1.63
2023-05-11T14:01:27.969Z,1.85
2023-05-11T14:03:57.332Z,1.70
2023-05-11T14:06:26.191Z,2.97
2023-05-11T14:08:54.150Z,1.98
2023-05-11T14:11:21.831Z,1.80
2023-05-11T14:13:51.226Z,1.42
2023-05-11T14:16:19.866Z,1.63
2023-05-11T14:18:48.462Z,1.40
2023-05-11T14:21:17.361Z,1.50
2023-05-11T14:23:57.674Z,2.13
2023-05-11T14:26:29.805Z,1.40
2023-05-11T14:28:58.115Z,1.52
2023-05-11T14:31:26.247Z,1.42
2023-05-11T14:33:53.986Z,1.45
2023-05-11T14:36:23.399Z,1.67
2023-05-11T14:38:51.312Z,10.48
2023-05-11T14:41:19.174Z,1.75
2023-05-11T14:43:46.952Z,1.50
2023-05-11T14:46:14.451Z,3.08
2023-05-11T14:48:43.461Z,1.75
2023-05-11T14:51:10.780Z,4.57
2023-05-11T14:53:38.458Z,2.50
2023-05-11T14:56:06.224Z,1.23
2023-05-11T14:58:33.821Z,1.83
2023-05-11T15:01:01.104Z,1.40
2023-05-11T15:03:29.596Z,1.65
2023-05-11T15:05:56.959Z,1.50
2023-05-11T15:08:30.308Z,1.80
2023-05-11T15:10:58.665Z,1.35
2023-05-11T15:13:26.870Z,1.63
2023-05-11T15:15:54.388Z,1.40
2023-05-11T15:18:21.732Z,1.65
2023-05-11T15:20:49.404Z,2.30
2023-05-11T15:23:17.321Z,1.67
2023-05-11T15:25:45.427Z,1.73
2023-05-11T15:28:13.345Z,1.70
2023-05-11T15:30:42.275Z,3.40
2023-05-11T15:33:10.934Z,5.93
2023-05-11T15:35:38.821Z,2.17
2023-05-11T15:38:06.377Z,1.73
2023-05-11T15:40:34.147Z,1.70
2023-05-11T15:43:01.569Z,1.67
2023-05-11T15:45:29.647Z,1.83
2023-05-11T15:47:58.287Z,2.60
2023-05-11T15:50:26.381Z,5.72
2023-05-11T15:52:53.907Z,5.35
2023-05-11T15:55:21.201Z,1.70
2023-05-11T15:57:48.836Z,1.65
2023-05-11T16:00:17.682Z,1.60
2023-05-11T16:02:46.129Z,1.55
2023-05-11T16:05:13.619Z,1.77
2023-05-11T16:07:43.630Z,1.48
2023-05-11T16:10:11.315Z,2.05
2023-05-11T16:12:39.055Z,1.90
2023-05-11T16:15:07.554Z,2.38
2023-05-11T16:17:35.236Z,1.60
2023-05-11T16:20:09.010Z,1.65
2023-05-11T16:22:44.397Z,6.90
2023-05-11T16:25:11.813Z,2.65
2023-05-11T16:27:39.504Z,2.92
2023-05-11T16:30:22.275Z,1.75
2023-05-11T16:32:53.058Z,1.63
2023-05-11T16:35:20.691Z,2.10
2023-05-11T16:37:48.525Z,1.83
2023-05-11T16:40:21.272Z,1.50
2023-05-11T16:42:49.437Z,1.80
2023-05-11T16:45:16.934Z,1.48
2023-05-11T16:47:47.510Z,1.65
2023-05-11T16:50:20.078Z,1.95
2023-05-11T16:52:48.794Z,1.25
2023-05-11T16:55:16.278Z,1.60
2023-05-11T16:57:44.615Z,1.40
2023-05-11T17:00:14.076Z,1.25
2023-05-11T17:02:41.803Z,1.70
2023-05-11T17:05:11.867Z,1.40
2023-05-11T17:07:39.798Z,1.50
2023-05-11T17:10:08.096Z,1.60
2023-05-11T17:12:35.860Z,1.40
2023-05-11T17:15:03.723Z,1.45
2023-05-11T17:17:31.342Z,1.85
2023-05-11T17:19:58.563Z,1.42
2023-05-11T17:22:28.311Z,2.55
2023-05-11T17:24:55.629Z,2.20
2023-05-11T17:27:23.325Z,2.03
2023-05-11T17:29:50.580Z,2.03
2023-05-11T17:32:18.492Z,1.90
2023-05-11T17:34:46.033Z,1.73
2023-05-11T17:37:30.662Z,1.70
2023-05-11T17:40:01.237Z,1.90
2023-05-11T17:42:29.071Z,1.92
2023-05-11T17:44:57.977Z,2.10
2023-05-11T17:47:26.301Z,1.88
2023-05-11T17:49:54.112Z,1.80
2023-05-11T17:52:23.529Z,1.77
2023-05-11T17:54:52.252Z,2.20
2023-05-11T17:57:20.430Z,1.92
2023-05-11T17:59:47.975Z,2.60
2023-05-11T18:02:16.601Z,2.20
2023-05-11T18:04:44.071Z,2.17
2023-05-11T18:07:11.985Z,2.17
2023-05-11T18:09:39.838Z,1.95
2023-05-11T18:12:08.350Z,2.00
2023-05-11T18:14:36.256Z,1.90
2023-05-11T18:17:05.298Z,1.95
2023-05-11T18:19:32.634Z,2.13
2023-05-11T18:22:00.726Z,2.15
2023-05-11T18:24:27.963Z,2.30
2023-05-11T18:26:56.015Z,2.30
2023-05-11T18:29:23.280Z,2.00
2023-05-11T18:31:51.094Z,3.10
2023-05-11T18:34:18.527Z,2.80
2023-05-11T18:36:53.130Z,2.42
2023-05-11T18:39:20.670Z,2.15
2023-05-11T18:41:48.268Z,2.15
2023-05-11T18:44:16.483Z,2.33
2023-05-11T18:46:44.042Z,2.10
2023-05-11T18:49:11.473Z,1.80
2023-05-11T18:51:39.050Z,2.70
2023-05-11T18:54:06.740Z,2.25
2023-05-11T18:56:37.098Z,2.65
2023-05-11T18:59:04.623Z,2.42
2023-05-11T19:01:46.674Z,2.42
2023-05-11T19:04:17.797Z,3.00
2023-05-11T19:06:45.406Z,3.53
2023-05-11T19:09:12.717Z,2.90
2023-05-11T19:11:40.365Z,2.70
2023-05-11T19:14:07.840Z,2.40
2023-05-11T19:16:35.909Z,3.00
2023-05-11T19:19:03.504Z,2.63
2023-05-11T19:21:31.683Z,2.70
2023-05-11T19:23:58.952Z,3.00
2023-05-11T19:26:26.797Z,2.72
2023-05-11T19:28:54.165Z,3.88
2023-05-11T19:31:22.867Z,3.47
2023-05-11T19:33:50.157Z,3.15
2023-05-11T19:36:17.839Z,2.50
2023-05-11T19:38:45.740Z,3.10
2023-05-11T19:41:13.431Z,3.03
2023-05-11T19:43:40.685Z,3.15
2023-05-11T19:46:08.737Z,3.17
2023-05-11T19:48:36.192Z,3.22
2023-05-11T19:51:03.889Z,3.20
2023-05-11T19:53:31.583Z,3.33
2023-05-11T19:55:59.754Z,3.35
2023-05-11T19:58:27.315Z,3.50
2023-05-11T20:00:55.222Z,3.53
2023-05-11T20:03:22.708Z,3.70
2023-05-11T20:05:50.615Z,3.33
2023-05-11T20:08:17.945Z,3.65
2023-05-11T20:10:46.242Z,3.10
2023-05-11T20:13:13.587Z,3.90
2023-05-11T20:15:41.152Z,3.53
2023-05-11T20:18:09.478Z,3.90
2023-05-11T20:20:37.093Z,3.80
2023-05-11T20:23:05.597Z,3.70
2023-05-11T20:25:33.278Z,3.58
2023-05-11T20:28:01.098Z,3.85
2023-05-11T20:30:28.700Z,3.47
2023-05-11T20:35:26.893Z,4.05
2023-05-11T20:37:55.148Z,3.35
2023-05-11T20:40:22.774Z,3.30
2023-05-11T20:42:49.986Z,3.85
2023-05-11T20:45:17.873Z,3.55
2023-05-11T20:47:45.200Z,3.20
2023-05-11T20:50:15.234Z,3.40
2023-05-11T20:52:42.848Z,3.00
2023-05-11T20:55:10.203Z,3.60
2023-05-11T20:57:37.731Z,5.07
2023-05-11T21:00:07.728Z,3.47
2023-05-11T21:02:35.466Z,3.70
2023-05-11T21:05:04.009Z,3.72
2023-05-11T21:07:31.569Z,5.40
2023-05-11T21:09:59.029Z,4.28
2023-05-11T21:12:26.848Z,4.57
2023-05-11T21:14:56.229Z,3.50
2023-05-11T21:17:24.661Z,4.28
2023-05-11T21:19:52.133Z,3.92
2023-05-11T21:22:19.660Z,3.35
2023-05-11T21:24:46.930Z,3.65
2023-05-11T21:27:15.158Z,3.70
2023-05-11T21:29:42.507Z,5.97
2023-05-11T21:32:10.399Z,4.57
2023-05-11T21:34:38.433Z,3.55
2023-05-11T21:37:06.044Z,3.67
2023-05-11T21:39:33.251Z,3.58
2023-05-11T21:42:01.716Z,3.67
2023-05-11T21:44:29.289Z,3.92
2023-05-11T21:46:57.107Z,3.17
2023-05-11T21:49:24.436Z,3.45
2023-05-11T21:51:52.359Z,3.20
2023-05-11T21:54:22.809Z,3.75
2023-05-11T21:56:52.270Z,3.60
2023-05-11T21:59:20.060Z,3.35
2023-05-11T22:01:49.748Z,3.85
2023-05-11T22:04:17.066Z,3.80
2023-05-11T22:06:44.628Z,3.40
2023-05-11T22:09:12.868Z,3.28
2023-05-11T22:11:40.500Z,3.70
2023-05-11T22:14:07.785Z,3.58
2023-05-11T22:16:35.372Z,3.38
2023-05-11T22:19:02.865Z,2.92
2023-05-11T22:21:30.493Z,2.88
2023-05-11T22:23:57.986Z,2.92
2023-05-11T22:26:26.537Z,3.63
2023-05-11T22:28:53.897Z,3.58
2023-05-11T22:31:21.504Z,3.28
2023-05-11T22:33:48.954Z,3.70
2023-05-11T22:36:16.551Z,3.15
2023-05-11T22:38:43.860Z,3.42
2023-05-11T22:41:11.471Z,3.10
2023-05-11T22:43:39.006Z,3.20
2023-05-11T22:46:07.099Z,3.30
2023-05-11T22:48:34.343Z,3.65
2023-05-11T22:51:06.312Z,2.83
2023-05-11T22:53:33.607Z,3.58
2023-05-11T22:56:06.469Z,3.35
2023-05-11T22:58:34.016Z,3.88
2023-05-11T23:01:01.817Z,3.25
2023-05-11T23:03:29.327Z,3.35
2023-05-11T23:05:56.866Z,4.18
2023-05-11T23:08:26.576Z,3.72
2023-05-11T23:10:54.215Z,3.53
2023-05-11T23:13:21.600Z,3.28
2023-05-11T23:15:49.386Z,3.10
2023-05-11T23:18:16.947Z,3.33
2023-05-11T23:20:44.676Z,3.00
2023-05-11T23:23:12.246Z,3.72
2023-05-11T23:25:39.815Z,3.30
2023-05-11T23:28:11.566Z,3.88
2023-05-11T23:30:40.696Z,3.88
2023-05-11T23:33:08.099Z,3.42
2023-05-11T23:35:35.729Z,3.70
2023-05-11T23:38:02.980Z,3.35
2023-05-11T23:40:31.262Z,3.58
2023-05-11T23:42:58.479Z,3.13
2023-05-11T23:45:28.055Z,3.15
2023-05-11T23:47:55.327Z,3.38
2023-05-11T23:50:23.094Z,3.60
2023-05-11T23:52:50.373Z,3.47
2023-05-11T23:55:18.120Z,3.38
2023-05-11T23:57:45.387Z,3.35
